Time;durP1;ratioP1;P1;durP2;ratioP2;P2;SDS_P1;SDS_P2;PMS_P1;PMS_P2;Temp;Humidity;BMP_temperature;BMP_pressure;BME280_temperature;BME280_humidity;BME280_pressure;Samples;Min_cycle;Max_cycle;Signal;HPM_P1;HPM_P2
2024/01/18 00:03:13;;;;;;;4.17;3.87;;;6.60;99.90;;;7.28;100.00;95165.53;10469241;28;20236;-64
2024/01/18 00:08:16;;;;;;;8.40;7.03;;;6.60;99.90;;;7.28;100.00;95165.53;10472106;28;20872;-66
2024/01/18 00:13:19;;;;;;;7.80;5.40;;;6.40;99.90;;;6.98;100.00;95161.34;10457041;28;20253;-64
2024/01/18 00:18:24;;;;;;;5.63;5.03;;;6.20;99.90;;;7.08;100.00;95158.25;10457364;28;20232;-65
2024/01/18 00:23:27;;;;;;;4.60;4.20;;;6.40;99.90;;;7.14;100.00;95171.09;10467685;28;20247;-65
2024/01/18 00:28:30;;;;;;;9.53;8.73;;;6.50;99.90;;;7.44;100.00;95177.81;10455060;28;20235;-64
2024/01/18 00:33:35;;;;;;;4.97;4.47;;;6.70;99.90;;;7.42;100.00;95169.28;10468502;28;20241;-66
2024/01/18 00:38:38;;;;;;;5.57;5.17;;;6.70;99.90;;;7.47;100.00;95170.25;10460375;28;20596;-64
2024/01/18 00:43:41;;;;;;;4.17;3.87;;;6.70;99.90;;;7.45;100.00;95166.81;10458834;28;20229;-65
2024/01/18 00:48:45;;;;;;;3.00;2.80;;;6.80;99.90;;;7.63;100.00;95163.88;10478853;28;20863;-65
2024/01/18 00:53:49;;;;;;;3.60;3.30;;;6.90;99.90;;;7.59;100.00;95167.16;10477693;28;20232;-65
2024/01/18 00:58:52;;;;;;;3.60;3.30;;;6.80;99.90;;;7.60;100.00;95162.09;10465487;28;20794;-64
2024/01/18 01:03:57;;;;;;;3.03;2.83;;;6.80;99.90;;;7.60;100.00;95158.69;10455009;28;20229;-65
2024/01/18 01:09:00;;;;;;;2.37;2.27;;;6.90;99.90;;;7.73;100.00;95172.59;10479568;28;20743;-65
2024/01/18 01:14:03;;;;;;;2.20;2.10;;;7.00;99.90;;;8.04;100.00;95157.22;10456903;28;20260;-65
2024/01/18 01:19:08;;;;;;;1.70;1.60;;;7.30;99.90;;;8.01;100.00;95174.97;10480255;28;20221;-64
2024/01/18 01:24:11;;;;;;;1.73;1.63;;;7.40;99.90;;;8.13;100.00;95182.00;10442632;28;20298;-67
2024/01/18 01:29:15;;;;;;;2.10;1.97;;;7.40;99.90;;;8.27;100.00;95172.13;10463976;28;20231;-65
2024/01/18 01:34:19;;;;;;;1.60;1.50;;;7.60;99.90;;;8.41;100.00;95182.63;10470216;28;20220;-64
2024/01/18 01:39:23;;;;;;;1.67;1.30;;;7.80;99.90;;;8.73;100.00;95180.78;10477096;28;20281;-68
2024/01/18 01:44:26;;;;;;;1.50;1.47;;;7.90;99.90;;;8.77;100.00;95182.56;10457348;28;20278;-66
2024/01/18 01:49:30;;;;;;;1.33;1.33;;;7.90;99.90;;;8.78;100.00;95185.16;10465439;28;20224;-66
2024/01/18 01:54:34;;;;;;;2.30;1.87;;;7.90;99.90;;;8.99;100.00;95200.00;10456424;28;20217;-64
2024/01/18 01:59:37;;;;;;;1.90;1.80;;;8.30;99.90;;;8.88;100.00;95201.47;10456698;28;20717;-65
2024/01/18 02:04:42;;;;;;;1.80;1.70;;;8.20;99.90;;;8.79;100.00;95206.38;10455931;28;20231;-65
2024/01/18 02:09:46;;;;;;;1.80;1.70;;;8.20;99.90;;;8.75;100.00;95200.34;10460205;28;20243;-65
2024/01/18 02:14:50;;;;;;;1.67;1.60;;;8.10;99.90;;;8.63;100.00;95194.16;10453172;28;20294;-66
2024/01/18 02:19:55;;;;;;;1.80;1.70;;;8.00;99.90;;;8.59;100.00;95189.84;10462788;28;20732;-66
2024/01/18 02:25:12;;;;;;;2.45;1.95;;;8.00;99.90;;;8.60;100.00;95196.63;10452420;28;20224;-65
2024/01/18 02:30:15;;;;;;;2.00;1.90;;;8.00;99.90;;;8.67;100.00;95190.81;10451482;28;20738;-66
2024/01/18 02:35:19;;;;;;;1.98;1.88;;;8.00;99.90;;;8.60;100.00;95192.41;10451719;28;20280;-67
2024/01/18 02:40:24;;;;;;;2.45;2.17;;;7.90;99.90;;;8.54;100.00;95194.81;10466095;28;20250;-66
2024/01/18 02:45:27;;;;;;;2.95;2.20;;;7.80;99.90;;;8.45;100.00;95185.28;10458438;28;20810;-66
2024/01/18 02:50:30;;;;;;;2.60;2.17;;;7.70;99.90;;;8.46;100.00;95186.16;10467582;28;20220;-64
2024/01/18 02:55:35;;;;;;;1.90;1.80;;;7.70;99.90;;;8.38;100.00;95178.31;10471627;28;20232;-66
2024/01/18 03:00:38;;;;;;;2.03;1.93;;;7.60;99.90;;;8.35;100.00;95178.25;10436147;28;20224;-66
2024/01/18 03:05:42;;;;;;;2.72;2.53;;;7.70;99.90;;;8.44;100.00;95172.53;10456750;28;20355;-65
2024/01/18 03:10:47;;;;;;;2.28;2.08;;;7.70;99.90;;;8.38;100.00;95170.66;10439620;28;20307;-66
2024/01/18 03:15:50;;;;;;;1.83;1.60;;;7.70;99.90;;;8.33;100.00;95185.00;10440492;28;20232;-66
2024/01/18 03:20:53;;;;;;;2.50;1.93;;;7.60;99.90;;;8.45;100.00;95184.44;10470971;28;20247;-65
2024/01/18 03:25:57;;;;;;;1.90;1.87;;;7.60;99.90;;;8.28;100.00;95187.44;10471063;28;20336;-65
2024/01/18 03:31:00;;;;;;;2.13;1.97;;;7.50;99.90;;;8.12;100.00;95205.72;10451897;28;20224;-64
2024/01/18 03:36:04;;;;;;;4.77;2.40;;;7.50;99.90;;;8.12;100.00;95193.00;10434536;28;20347;-65
2024/01/18 03:41:09;;;;;;;1.67;1.57;;;7.50;99.90;;;8.23;100.00;95208.50;10448543;28;20656;-66
2024/01/18 03:46:14;;;;;;;1.90;1.80;;;7.60;99.90;;;8.42;100.00;95197.09;10463136;28;20790;-65
2024/01/18 03:51:17;;;;;;;2.53;1.97;;;7.80;99.90;;;8.61;100.00;95185.59;10443564;28;20260;-65
2024/01/18 03:56:22;;;;;;;2.37;1.90;;;8.00;99.90;;;8.68;100.00;95177.28;10462437;28;20350;-65
2024/01/18 04:01:25;;;;;;;2.10;1.87;;;8.10;99.90;;;8.59;100.00;95182.19;10449712;28;20236;-66
2024/01/18 04:06:28;;;;;;;2.83;2.10;;;8.10;99.90;;;8.57;100.00;95189.78;10469726;28;20252;-65
2024/01/18 04:11:33;;;;;;;2.00;1.90;;;8.10;99.90;;;8.44;100.00;95186.13;10461059;28;20228;-65
2024/01/18 04:16:37;;;;;;;2.50;2.30;;;8.00;99.90;;;8.35;100.00;95188.41;10458679;28;20673;-66
2024/01/18 04:21:41;;;;;;;2.13;1.93;;;7.90;99.90;;;8.29;100.00;95186.59;10455027;28;20300;-65
2024/01/18 04:26:45;;;;;;;2.23;1.90;;;7.80;99.90;;;8.28;100.00;95186.59;10475109;28;20224;-67
2024/01/18 04:31:49;;;;;;;2.63;2.43;;;7.70;99.90;;;8.24;100.00;95175.47;10462379;28;20231;-66
2024/01/18 04:36:52;;;;;;;2.10;1.90;;;7.70;99.90;;;8.16;100.00;95176.13;10458727;28;20720;-66
2024/01/18 04:41:56;;;;;;;2.67;2.20;;;7.60;99.90;;;8.20;100.00;95180.47;10476317;28;20239;-65
2024/01/18 04:47:00;;;;;;;2.37;2.10;;;7.60;99.90;;;8.21;100.00;95189.78;10465342;28;20229;-66
2024/01/18 04:52:03;;;;;;;4.83;2.33;;;7.60;99.90;;;8.02;100.00;95184.31;10423046;28;20270;-67
2024/01/18 04:57:08;;;;;;;2.30;2.10;;;7.50;99.90;;;7.97;100.00;95190.94;10425000;28;20225;-65
2024/01/18 05:02:11;;;;;;;2.10;2.00;;;7.40;99.90;;;7.95;100.00;95190.06;10456406;28;20315;-66
2024/01/18 05:07:14;;;;;;;4.67;3.73;;;7.40;99.90;;;7.85;100.00;95194.06;10462549;28;20253;-66
2024/01/18 05:12:19;;;;;;;4.20;3.80;;;7.20;99.90;;;7.73;100.00;95185.31;10454190;28;20244;-66
2024/01/18 05:17:22;;;;;;;3.70;3.40;;;7.10;99.90;;;7.57;100.00;95189.13;10453184;28;20228;-67
2024/01/18 05:22:25;;;;;;;3.73;3.47;;;7.00;99.90;;;7.51;100.00;95192.38;10474077;28;20812;-67
2024/01/18 05:27:30;;;;;;;3.90;3.60;;;6.90;99.90;;;7.36;100.00;95189.47;10458719;28;20232;-66
2024/01/18 05:32:34;;;;;;;4.90;4.40;;;6.70;99.90;;;7.40;100.00;95197.19;10456623;28;20335;-63
2024/01/18 05:37:37;;;;;;;5.03;4.27;;;6.80;99.90;;;7.32;100.00;95193.56;10462919;28;20235;-65
2024/01/18 05:42:42;;;;;;;4.77;4.10;;;6.80;99.90;;;7.28;100.00;95201.94;10465121;28;20229;-65
2024/01/18 05:47:45;;;;;;;4.60;4.20;;;6.70;99.90;;;7.34;100.00;95202.09;10459904;28;20217;-65
2024/01/18 05:52:48;;;;;;;6.57;5.93;;;6.80;99.90;;;7.39;100.00;95208.19;10458776;28;20604;-64
2024/01/18 05:57:53;;;;;;;11.70;8.20;;;6.80;99.90;;;7.23;100.00;95193.34;10466214;28;20232;-65
2024/01/18 06:02:56;;;;;;;22.10;13.53;;;6.40;99.90;;;7.02;100.00;95192.78;10453183;28;20600;-67
2024/01/18 06:07:59;;;;;;;6.73;6.00;;;6.40;99.90;;;7.04;100.00;95199.63;10465134;28;20837;-64
2024/01/18 06:13:04;;;;;;;14.87;11.67;;;6.50;99.90;;;7.15;100.00;95195.69;10452656;28;20228;-66
2024/01/18 06:18:07;;;;;;;28.73;25.93;;;6.60;99.90;;;6.96;100.00;95186.72;10476853;28;20608;-64
2024/01/18 06:23:10;;;;;;;19.07;17.47;;;6.30;99.90;;;6.84;100.00;95199.06;10453897;28;20622;-65
2024/01/18 06:28:15;;;;;;;13.03;11.90;;;6.10;99.90;;;6.64;100.00;95195.97;10450284;28;20221;-66
2024/01/18 06:33:18;;;;;;;10.60;9.50;;;6.00;99.90;;;6.54;100.00;95196.50;10458672;28;20234;-64
2024/01/18 06:38:22;;;;;;;10.03;9.13;;;6.00;99.90;;;6.59;100.00;95187.38;10452798;28;20231;-67
2024/01/18 06:43:26;;;;;;;11.37;10.23;;;6.00;99.90;;;6.60;100.00;95185.69;10462125;28;20307;-67
2024/01/18 06:48:29;;;;;;;12.80;11.60;;;6.00;99.90;;;6.62;100.00;95191.66;10444550;28;20241;-64
2024/01/18 06:53:33;;;;;;;14.30;10.63;;;6.00;99.90;;;6.58;100.00;95195.81;10441083;28;20243;-64
2024/01/18 06:58:37;;;;;;;11.03;9.23;;;5.90;99.90;;;6.47;100.00;95187.88;10467277;28;20224;-66
2024/01/18 07:03:41;;;;;;;12.77;9.30;;;5.80;99.90;;;6.39;100.00;95203.69;10433348;28;20233;-67
2024/01/18 07:08:44;;;;;;;9.17;7.50;;;5.70;99.90;;;6.36;100.00;95203.59;10444837;28;20633;-65
2024/01/18 07:13:49;;;;;;;10.37;8.50;;;5.80;99.90;;;6.44;100.00;95212.25;10433919;28;20228;-65
2024/01/18 07:18:52;;;;;;;13.53;9.30;;;5.90;99.90;;;6.51;100.00;95214.19;10453058;28;20769;-66
2024/01/18 07:23:55;;;;;;;16.80;12.40;;;5.90;99.90;;;6.58;100.00;95213.56;10448173;28;20229;-64
2024/01/18 07:29:00;;;;;;;17.83;14.47;;;6.00;99.90;;;6.51;100.00;95225.19;10448187;28;20605;-65
2024/01/18 07:34:03;;;;;;;14.63;11.97;;;5.80;99.90;;;6.45;100.00;95219.09;10455703;28;20224;-66
2024/01/18 07:39:06;;;;;;;12.73;10.50;;;5.80;99.90;;;6.40;100.00;95205.41;10456893;28;20220;-66
2024/01/18 07:44:11;;;;;;;10.80;9.70;;;5.70;99.90;;;6.27;100.00;95215.19;10452889;28;20259;-67
2024/01/18 07:49:14;;;;;;;9.57;8.40;;;5.50;99.90;;;6.25;100.00;95211.72;10467090;28;20232;-66
2024/01/18 07:54:17;;;;;;;12.03;8.63;;;5.50;99.90;;;6.10;100.00;95206.19;10449751;28;20224;-65
2024/01/18 07:59:22;;;;;;;9.60;8.63;;;5.40;99.90;;;5.99;100.00;95205.84;10442143;28;20320;-66
2024/01/18 08:04:25;;;;;;;10.17;8.80;;;5.30;99.90;;;5.98;100.00;95210.88;10435160;28;20252;-67
2024/01/18 08:09:28;;;;;;;8.90;8.10;;;5.20;99.90;;;5.92;100.00;95226.72;10447557;28;20629;-66
2024/01/18 08:14:33;;;;;;;9.20;8.23;;;5.20;99.90;;;5.82;100.00;95225.56;10470698;28;20249;-65
2024/01/18 08:19:36;;;;;;;8.60;7.80;;;5.20;99.90;;;5.80;100.00;95227.19;10435858;28;20232;-66
2024/01/18 08:24:41;;;;;;;9.03;8.13;;;5.10;99.90;;;5.78;100.00;95238.97;10474657;28;20228;-65
2024/01/18 08:29:47;;;;;;;8.67;7.67;;;5.10;99.90;;;5.68;100.00;95234.38;10480778;28;20224;-65
2024/01/18 08:34:50;;;;;;;9.63;8.70;;;4.90;99.90;;;5.55;100.00;95232.25;10468657;28;20227;-67
2024/01/18 08:39:53;;;;;;;8.23;7.53;;;4.90;99.90;;;5.54;100.00;95235.59;10456831;28;20224;-66
2024/01/18 08:44:58;;;;;;;7.73;6.93;;;4.80;99.90;;;5.59;100.00;95231.56;10472850;28;20236;-67
2024/01/18 08:50:01;;;;;;;8.97;8.10;;;4.80;99.90;;;5.48;100.00;95232.88;10465120;28;20316;-67
2024/01/18 08:55:06;;;;;;;8.47;7.67;;;4.80;99.90;;;5.38;100.00;95242.69;10446699;28;20233;-66
2024/01/18 09:00:13;;;;;;;9.50;8.60;;;4.80;99.90;;;5.30;100.00;95250.84;10447377;28;20221;-68
2024/01/18 09:05:16;;;;;;;7.80;7.10;;;4.80;99.90;;;5.30;100.00;95259.28;10436097;28;20671;-66
2024/01/18 09:10:21;;;;;;;8.67;7.87;;;4.70;99.90;;;5.37;100.00;95261.22;10439181;28;20224;-66
2024/01/18 09:15:26;;;;;;;9.57;8.67;;;4.70;99.90;;;5.51;100.00;95260.84;10446680;28;20254;-66
2024/01/18 09:20:29;;;;;;;7.67;7.07;;;4.80;99.90;;;5.52;100.00;95283.69;10451811;28;20235;-66
2024/01/18 09:25:33;;;;;;;6.57;6.10;;;4.70;99.90;;;5.45;100.00;95299.47;10447849;28;20351;-67
2024/01/18 09:30:37;;;;;;;5.83;5.43;;;4.50;99.90;;;5.19;100.00;95290.97;10432203;28;20224;-66
2024/01/18 09:35:46;;;;;;;5.40;5.10;;;4.30;99.90;;;5.07;100.00;95300.66;10471274;28;20247;-64
2024/01/18 09:40:49;;;;;;;6.30;5.80;;;4.20;99.90;;;4.92;100.00;95317.03;10464473;28;20232;-67
2024/01/18 09:45:58;;;;;;;5.23;4.83;;;4.20;99.90;;;4.92;100.00;95329.66;10431240;28;20715;-66
2024/01/18 09:51:03;;;;;;;21.30;13.03;;;4.20;99.90;;;4.92;100.00;95341.44;10447446;28;20271;-65
2024/01/18 09:56:14;;;;;;;37.57;23.80;;;4.10;99.90;;;4.85;100.00;95345.41;10459296;28;20243;-66
2024/01/18 10:01:21;;;;;;;48.80;33.27;;;3.90;99.90;;;4.61;100.00;95359.66;10456840;28;20233;-65
2024/01/18 10:06:25;;;;;;;11.60;9.40;;;3.80;99.90;;;4.38;100.00;95374.78;10415733;28;20233;-66
2024/01/18 10:11:28;;;;;;;8.47;7.70;;;3.70;99.90;;;4.44;100.00;95386.81;10452101;28;20233;-65
2024/01/18 10:16:36;;;;;;;7.43;6.93;;;3.70;99.90;;;4.23;100.00;95399.44;10445987;28;20213;-66
2024/01/18 10:21:39;;;;;;;5.80;5.40;;;3.50;99.90;;;4.14;100.00;95396.53;10455004;28;20596;-65
2024/01/18 10:26:42;;;;;;;9.37;8.37;;;3.40;99.90;;;3.91;100.00;95396.44;10439272;28;20228;-66
2024/01/18 10:31:47;;;;;;;7.80;7.20;;;3.30;99.90;;;4.12;100.00;95398.13;10453346;28;20356;-66
2024/01/18 10:36:50;;;;;;;6.83;6.23;;;3.30;99.90;;;3.99;100.00;95417.84;10437791;28;20231;-65
2024/01/18 10:41:53;;;;;;;8.70;7.80;;;3.20;99.90;;;3.78;100.00;95450.66;10453014;28;20349;-66
2024/01/18 10:46:58;;;;;;;5.63;5.23;;;3.10;99.90;;;3.68;100.00;95478.81;10441981;28;20737;-64
2024/01/18 10:52:03;;;;;;;8.93;8.13;;;3.10;99.90;;;3.57;100.00;95490.09;10449203;28;20240;-69
2024/01/18 10:57:07;;;;;;;7.07;6.37;;;3.00;99.90;;;3.57;100.00;95513.69;10432835;28;20226;-65
2024/01/18 11:02:12;;;;;;;4.97;4.63;;;3.00;99.90;;;3.49;100.00;95515.03;10455258;28;20251;-65
2024/01/18 11:07:16;;;;;;;7.17;6.47;;;2.90;99.90;;;3.67;100.00;95535.19;10441048;28;20231;-64
2024/01/18 11:12:20;;;;;;;4.93;4.50;;;3.00;99.90;;;3.52;100.00;95552.13;10439201;28;20231;-65
2024/01/18 11:17:25;;;;;;;2.90;2.70;;;3.00;99.90;;;3.51;100.00;95565.56;10432896;28;20225;-66
2024/01/18 11:22:30;;;;;;;3.23;3.03;;;3.00;99.90;;;3.50;100.00;95589.97;10448013;28;20257;-65
2024/01/18 11:27:38;;;;;;;3.00;2.90;;;3.00;99.90;;;3.36;100.00;95617.09;10418051;28;20228;-64
2024/01/18 11:32:44;;;;;;;2.93;2.83;;;2.80;99.90;;;3.15;100.00;95619.44;10439385;28;20230;-65
2024/01/18 11:37:47;;;;;;;2.80;2.70;;;2.70;99.90;;;3.08;100.00;95612.34;10462216;28;20225;-65
2024/01/18 11:42:50;;;;;;;2.80;2.70;;;2.60;99.90;;;2.93;100.00;95622.56;10451784;28;20237;-65
2024/01/18 11:47:55;;;;;;;3.10;2.90;;;2.50;99.90;;;2.78;100.00;95636.94;10445550;28;20234;-67
2024/01/18 11:52:58;;;;;;;3.67;3.47;;;2.40;99.90;;;2.58;100.00;95658.63;10451120;28;20232;-67
2024/01/18 11:58:04;;;;;;;4.37;4.07;;;2.30;99.90;;;2.44;100.00;95674.69;10443720;28;20726;-67
2024/01/18 12:03:12;;;;;;;10.77;8.83;;;2.10;99.90;;;2.25;100.00;95703.94;10449281;28;20246;-67
2024/01/18 12:08:15;;;;;;;13.03;9.53;;;1.90;99.90;;;2.03;100.00;95714.53;10437346;28;20232;-66
2024/01/18 12:13:18;;;;;;;21.83;16.10;;;1.70;99.90;;;1.88;100.00;95715.34;10424316;28;20243;-67
2024/01/18 12:18:23;;;;;;;4.77;4.47;;;1.60;99.90;;;1.89;100.00;95712.03;10419471;28;20737;-67
2024/01/18 12:23:27;;;;;;;5.17;4.77;;;1.50;99.90;;;1.77;100.00;95713.13;10433236;28;20227;-68
2024/01/18 12:28:31;;;;;;;4.10;3.90;;;1.40;99.90;;;1.73;100.00;95730.47;10459107;28;20267;-67
2024/01/18 12:33:35;;;;;;;5.17;4.87;;;1.40;99.90;;;1.73;100.00;95743.94;10475499;28;20235;-67
2024/01/18 12:38:39;;;;;;;6.17;5.57;;;1.40;99.90;;;1.71;100.00;95763.09;10459890;28;20603;-67
2024/01/18 12:43:42;;;;;;;7.27;6.57;;;1.40;99.90;;;1.71;100.00;95765.63;10436269;28;20236;-67
2024/01/18 12:48:47;;;;;;;6.00;5.40;;;1.40;99.90;;;1.63;100.00;95787.00;10447864;28;20288;-67
2024/01/18 12:53:51;;;;;;;5.60;5.20;;;1.30;99.90;;;1.60;100.00;95809.47;10446451;28;20633;-66
2024/01/18 12:58:54;;;;;;;5.37;5.00;;;1.30;99.90;;;1.51;100.00;95817.34;10443915;28;21604;-67
2024/01/18 13:04:20;;;;;;;4.83;4.50;;;1.20;99.90;;;1.54;100.00;95835.16;10451456;28;20313;-66
2024/01/18 13:09:26;;;;;;;4.57;4.27;;;1.30;99.90;;;1.46;100.00;95838.00;10442727;28;20696;-66
2024/01/18 13:14:31;;;;;;;5.20;4.80;;;1.20;99.90;;;1.49;100.00;95849.13;10462918;28;20233;-66
2024/01/18 13:19:39;;;;;;;5.00;4.60;;;1.20;99.90;;;1.53;100.00;95865.28;10457549;28;21301;-66
2024/01/18 13:24:43;;;;;;;6.43;5.93;;;1.20;99.90;;;1.55;100.00;95871.28;10460805;28;20237;-67
2024/01/18 13:29:47;;;;;;;6.13;5.73;;;1.30;99.90;;;1.61;100.00;95901.84;10443683;28;20237;-67
2024/01/18 13:34:51;;;;;;;7.10;6.50;;;1.30;99.90;;;1.55;100.00;95924.16;10474592;28;20912;-67
2024/01/18 13:39:55;;;;;;;6.30;5.90;;;1.20;99.90;;;1.58;100.00;95939.44;10439919;28;20245;-66
2024/01/18 13:44:58;;;;;;;6.57;6.07;;;1.20;99.90;;;1.57;100.00;95955.31;10454079;28;20226;-66
2024/01/18 13:50:04;;;;;;;8.23;7.53;;;1.20;99.90;;;1.66;100.00;95978.53;10448551;28;20325;-66
2024/01/18 13:55:08;;;;;;;7.90;7.30;;;1.20;99.90;;;1.54;100.00;95975.25;10448802;28;20224;-67
2024/01/18 14:00:13;;;;;;;8.53;7.83;;;1.20;99.90;;;1.58;100.00;95980.59;10456845;28;20232;-67
2024/01/18 14:05:18;;;;;;;7.47;6.87;;;1.20;99.90;;;1.42;100.00;96007.25;10446466;28;20226;-67
2024/01/18 14:10:21;;;;;;;7.50;6.80;;;1.10;99.90;;;1.48;100.00;96032.78;10442717;28;20251;-67
2024/01/18 14:15:25;;;;;;;8.77;8.07;;;1.10;99.90;;;1.58;100.00;96047.69;10431636;28;20234;-65
2024/01/18 14:20:29;;;;;;;8.33;7.73;;;1.20;99.90;;;1.43;100.00;96061.81;10437262;28;20238;-66
2024/01/18 14:25:34;;;;;;;9.30;8.50;;;1.10;99.90;;;1.50;100.00;96058.94;10465727;28;20228;-66
2024/01/18 14:30:37;;;;;;;9.77;9.03;;;1.10;99.90;;;1.42;100.00;96075.19;10452966;28;20313;-65
2024/01/18 14:35:42;;;;;;;8.90;8.20;;;1.00;99.90;;;1.39;100.00;96106.06;10456665;28;20229;-66
2024/01/18 14:40:45;;;;;;;8.50;7.90;;;1.00;99.90;;;1.42;100.00;96125.53;10443784;28;20222;-66
2024/01/18 14:45:52;;;;;;;9.43;8.63;;;1.00;99.90;;;1.35;100.00;96134.34;10435903;28;20334;-66
2024/01/18 14:50:56;;;;;;;8.87;8.17;;;1.00;99.90;;;1.35;100.00;96154.47;10440166;28;20224;-65
2024/01/18 14:55:59;;;;;;;10.53;9.73;;;1.00;99.90;;;1.40;100.00;96172.38;10428806;28;20226;-65
2024/01/18 15:01:03;;;;;;;9.60;8.80;;;1.00;99.90;;;1.34;100.00;96196.41;10445443;28;20312;-66
2024/01/18 15:06:14;;;;;;;12.20;10.90;;;0.90;99.90;;;1.28;100.00;96228.69;10470724;28;20629;-65
2024/01/18 15:11:17;;;;;;;12.57;11.37;;;0.90;99.90;;;1.10;100.00;96233.38;10441516;28;20225;-65
2024/01/18 15:16:21;;;;;;;11.83;10.73;;;0.80;99.90;;;1.15;100.00;96248.78;10441035;28;20228;-64
2024/01/18 15:21:25;;;;;;;14.57;13.17;;;0.80;99.90;;;1.11;100.00;96287.09;10452748;28;20230;-63
2024/01/18 15:26:29;;;;;;;13.80;12.60;;;0.70;99.90;;;1.20;100.00;96294.38;10445959;28;20222;-64
2024/01/18 15:31:33;;;;;;;13.07;11.97;;;0.80;99.90;;;1.02;100.00;96335.13;10463452;28;20236;-64
2024/01/18 15:36:41;;;;;;;13.93;12.53;;;0.70;99.90;;;0.98;100.00;96342.38;10429378;28;20230;-64
2024/01/18 15:41:45;;;;;;;12.63;11.43;;;0.60;99.90;;;0.99;100.00;96364.22;10455755;28;20232;-64
2024/01/18 15:46:54;;;;;;;12.67;11.57;;;0.60;99.90;;;1.01;100.00;96392.91;10447232;28;20697;-63
2024/01/18 15:51:59;;;;;;;12.87;11.60;;;0.60;99.90;;;1.15;100.00;96404.78;10465909;28;20233;-64
2024/01/18 15:57:03;;;;;;;10.97;9.97;;;0.70;99.90;;;1.00;100.00;96443.94;10429753;28;20394;-64
2024/01/18 16:02:06;;;;;;;13.43;12.23;;;0.60;99.90;;;0.96;100.00;96459.59;10445403;28;20351;-64
2024/01/18 16:07:11;;;;;;;12.63;11.53;;;0.60;99.90;;;1.02;100.00;96475.13;10456001;28;20225;-64
2024/01/18 16:12:14;;;;;;;11.80;10.80;;;0.60;99.90;;;0.96;100.00;96484.75;10456880;28;20257;-64
2024/01/18 16:17:18;;;;;;;12.47;11.37;;;0.60;99.90;;;0.94;100.00;96507.28;10476554;28;21158;-64
2024/01/18 16:22:22;;;;;;;13.10;11.97;;;0.50;99.90;;;0.96;100.00;96527.50;10461971;28;20224;-63
2024/01/18 16:27:25;;;;;;;17.00;15.20;;;0.50;99.90;;;0.93;100.00;96570.06;10457560;28;21613;-65
2024/01/18 16:32:29;;;;;;;14.37;13.10;;;0.50;99.90;;;0.88;100.00;96583.16;10455542;28;20972;-66
2024/01/18 16:37:35;;;;;;;18.40;16.47;;;0.50;99.90;;;0.78;100.00;96598.34;10474024;28;20618;-65
2024/01/18 16:42:38;;;;;;;15.30;13.80;;;0.40;99.90;;;0.74;100.00;96613.97;10444743;28;20311;-66
2024/01/18 16:47:41;;;;;;;14.97;13.57;;;0.40;99.90;;;0.81;100.00;96636.28;10466745;28;20227;-64
2024/01/18 16:52:46;;;;;;;14.57;13.17;;;0.40;99.90;;;0.85;100.00;96653.34;10434161;28;20286;-66
2024/01/18 16:57:49;;;;;;;14.07;12.63;;;0.50;99.90;;;0.76;100.00;96667.75;10454860;28;20228;-66
2024/01/18 17:02:52;;;;;;;16.30;14.70;;;0.40;99.90;;;0.82;100.00;96679.91;10453285;28;20225;-66
2024/01/18 17:07:57;;;;;;;17.23;15.43;;;0.50;99.90;;;0.93;100.00;96700.84;10463305;28;20227;-63
2024/01/18 17:13:00;;;;;;;15.17;13.57;;;0.50;99.90;;;1.05;100.00;96714.31;10444121;28;20252;-64
2024/01/18 17:18:04;;;;;;;15.63;14.03;;;0.50;99.90;;;1.05;100.00;96731.94;10467502;28;20235;-63
2024/01/18 17:23:11;;;;;;;17.40;15.53;;;0.60;99.90;;;1.05;100.00;96742.88;10428199;28;20391;-64
2024/01/18 17:28:15;;;;;;;17.50;15.73;;;0.60;99.90;;;1.10;100.00;96754.16;10459431;28;20233;-66
2024/01/18 17:33:18;;;;;;;19.73;17.60;;;0.60;99.90;;;1.04;100.00;96771.31;10470067;28;20233;-67
2024/01/18 17:38:23;;;;;;;19.33;17.23;;;0.60;99.90;;;1.06;100.00;96786.50;10443588;28;20225;-64
2024/01/18 17:43:26;;;;;;;16.23;14.57;;;0.60;99.90;;;0.97;100.00;96800.91;10460685;28;20246;-64
2024/01/18 17:48:29;;;;;;;17.43;15.47;;;0.50;99.90;;;0.82;100.00;96823.25;10444896;28;20238;-65
2024/01/18 17:53:34;;;;;;;17.87;15.10;;;0.40;99.90;;;0.76;100.00;96837.88;10474986;28;20231;-64
2024/01/18 17:58:37;;;;;;;17.60;15.80;;;0.40;99.90;;;0.73;100.00;96848.56;10443281;28;21009;-65
2024/01/18 18:03:40;;;;;;;18.40;15.93;;;0.40;99.90;;;0.89;100.00;96850.66;10445410;28;20235;-67
2024/01/18 18:08:44;;;;;;;26.83;20.67;;;0.40;99.90;;;0.90;100.00;96858.31;10452070;28;20275;-64
2024/01/18 18:13:48;;;;;;;53.50;33.00;;;0.40;99.90;;;1.00;100.00;96869.97;10433163;28;20239;-64
2024/01/18 18:18:51;;;;;;;29.13;23.90;;;0.50;99.90;;;0.99;100.00;96885.81;10466609;28;20232;-65
2024/01/18 18:23:55;;;;;;;23.77;18.43;;;0.50;99.90;;;0.90;100.00;96888.50;10431752;28;20366;-64
2024/01/18 18:28:59;;;;;;;22.77;20.13;;;0.40;99.90;;;0.88;100.00;96912.63;10442758;28;20281;-66
2024/01/18 18:34:03;;;;;;;24.53;20.77;;;0.40;99.90;;;0.89;100.00;96916.06;10421497;28;20709;-65
2024/01/18 18:39:23;;;;;;;23.90;20.20;;;0.40;99.90;;;0.90;100.00;96928.72;10437458;28;20226;-64
2024/01/18 18:44:26;;;;;;;22.73;20.23;;;0.40;99.90;;;0.79;100.00;96939.59;10464204;28;20227;-65
2024/01/18 18:49:29;;;;;;;24.90;20.23;;;0.40;99.90;;;0.68;100.00;96956.31;10456843;28;20375;-65
2024/01/18 18:54:34;;;;;;;41.23;30.93;;;0.30;99.90;;;0.89;100.00;96957.16;10443425;28;20266;-64
2024/01/18 18:59:37;;;;;;;31.13;23.37;;;0.30;99.90;;;0.79;100.00;96967.25;10439608;28;20229;-66
2024/01/18 19:04:51;;;;;;;27.40;21.10;;;0.20;99.90;;;0.62;100.00;96977.59;10415991;28;20221;-64
2024/01/18 19:09:56;;;;;;;26.00;21.07;;;0.20;99.90;;;0.69;100.00;96982.38;10443238;28;20234;-65
2024/01/18 19:14:59;;;;;;;27.83;23.27;;;0.20;99.90;;;0.71;100.00;96995.94;10424613;28;20231;-66
2024/01/18 19:20:04;;;;;;;28.47;21.57;;;0.20;99.90;;;0.67;100.00;97004.00;10449113;28;20534;-67
2024/01/18 19:25:09;;;;;;;23.97;19.67;;;0.20;99.90;;;0.63;100.00;97019.56;10435800;28;20234;-65
2024/01/18 19:30:13;;;;;;;25.03;18.80;;;0.10;99.90;;;0.57;100.00;97029.13;10446325;28;20355;-65
2024/01/18 19:35:17;;;;;;;24.90;19.80;;;0.10;99.90;;;0.58;100.00;97043.47;10444339;28;20229;-63
2024/01/18 19:40:22;;;;;;;23.67;18.57;;;0.10;99.90;;;0.67;100.00;97054.28;10455211;28;20319;-64
2024/01/18 19:45:26;;;;;;;19.97;16.00;;;0.20;99.90;;;0.56;100.00;97072.63;10445159;28;20241;-63
2024/01/18 19:50:30;;;;;;;21.47;17.87;;;0.00;99.90;;;0.40;100.00;97068.88;10445912;28;20231;-64
2024/01/18 19:55:34;;;;;;;21.97;17.53;;;-0.10;99.90;;;0.48;100.00;97082.03;10461284;28;20235;-64
2024/01/18 20:00:38;;;;;;;21.47;17.83;;;0.00;99.90;;;0.56;100.00;97092.75;10449029;28;20223;-64
2024/01/18 20:05:41;;;;;;;20.43;16.00;;;0.00;99.90;;;0.38;100.00;97105.56;10464959;28;20258;-65
2024/01/18 20:10:46;;;;;;;16.77;13.60;;;-0.10;99.90;;;0.45;100.00;97127.03;10434425;28;20913;-64
2024/01/18 20:15:49;;;;;;;18.70;13.90;;;0.00;99.90;;;0.45;100.00;97140.47;10469446;28;20237;-65
2024/01/18 20:20:54;;;;;;;19.03;14.93;;;-0.10;99.90;;;0.36;100.00;97152.28;10435322;28;20315;-65
2024/01/18 20:26:01;;;;;;;24.37;18.20;;;-0.10;99.90;;;0.47;100.00;97159.84;10460352;28;20223;-63
2024/01/18 20:31:04;;;;;;;21.77;17.73;;;0.00;99.90;;;0.47;100.00;97182.47;10463418;28;20228;-65
2024/01/18 20:36:08;;;;;;;28.37;21.77;;;0.00;99.90;;;0.61;100.00;97184.53;10439415;28;20242;-66
2024/01/18 20:41:13;;;;;;;28.77;22.17;;;0.10;99.90;;;0.59;100.00;97198.59;10469805;28;20322;-65
2024/01/18 20:46:16;;;;;;;28.17;20.67;;;0.10;99.90;;;0.60;100.00;97212.91;10440616;28;20222;-65
2024/01/18 20:51:20;;;;;;;27.83;21.37;;;0.10;99.90;;;0.55;100.00;97235.16;10484084;28;20327;-65
2024/01/18 20:56:24;;;;;;;32.43;25.73;;;0.00;99.90;;;0.55;100.00;97254.41;10437729;28;20725;-66
2024/01/18 21:01:27;;;;;;;31.83;25.10;;;0.00;99.90;;;0.55;100.00;97251.91;10456180;28;20227;-65
2024/01/18 21:06:30;;;;;;;35.23;25.67;;;0.00;99.90;;;0.52;100.00;97266.72;10437862;28;20213;-65
2024/01/18 21:11:35;;;;;;;37.23;28.10;;;0.00;99.90;;;0.50;100.00;97268.22;10450279;28;20247;-65